sensor_id;sensor_type;location;lat;lon;timestamp;P1;durP1;ratioP1;P2;durP2;ratioP2
24901;SDS011;31328;51.402;0.016;2023-01-29T00:00:09;14.23;;;8.73;;
24901;SDS011;31328;51.402;0.016;2023-01-29T00:02:38;13.67;;;8.50;;
24901;SDS011;31328;51.402;0.016;2023-01-29T00:05:05;12.40;;;8.63;;
24901;SDS011;31328;51.402;0.016;2023-01-29T00:07:33;14.63;;;8.70;;
24901;SDS011;31328;51.402;0.016;2023-01-29T00:09:59;15.77;;;10.07;;
24901;SDS011;31328;51.402;0.016;2023-01-29T00:12:25;16.67;;;9.33;;
24901;SDS011;31328;51.402;0.016;2023-01-29T00:14:51;16.00;;;9.63;;
24901;SDS011;31328;51.402;0.016;2023-01-29T00:17:19;18.17;;;9.70;;
24901;SDS011;31328;51.402;0.016;2023-01-29T00:19:45;14.27;;;9.47;;
24901;SDS011;31328;51.402;0.016;2023-01-29T00:22:12;17.83;;;10.33;;
24901;SDS011;31328;51.402;0.016;2023-01-29T00:24:38;15.17;;;10.03;;
24901;SDS011;31328;51.402;0.016;2023-01-29T00:27:04;19.53;;;10.80;;
24901;SDS011;31328;51.402;0.016;2023-01-29T00:29:31;15.43;;;9.67;;
24901;SDS011;31328;51.402;0.016;2023-01-29T00:31:57;20.80;;;11.30;;
24901;SDS011;31328;51.402;0.016;2023-01-29T00:34:23;17.73;;;10.43;;
24901;SDS011;31328;51.402;0.016;2023-01-29T00:36:50;22.07;;;11.90;;
24901;SDS011;31328;51.402;0.016;2023-01-29T00:39:16;15.50;;;10.70;;
24901;SDS011;31328;51.402;0.016;2023-01-29T00:41:48;24.13;;;12.57;;
24901;SDS011;31328;51.402;0.016;2023-01-29T00:44:34;20.40;;;10.67;;
24901;SDS011;31328;51.402;0.016;2023-01-29T00:47:19;19.23;;;11.38;;
24901;SDS011;31328;51.402;0.016;2023-01-29T00:50:01;20.27;;;11.83;;
24901;SDS011;31328;51.402;0.016;2023-01-29T00:52:30;18.03;;;10.97;;
24901;SDS011;31328;51.402;0.016;2023-01-29T00:54:58;22.03;;;12.40;;
24901;SDS011;31328;51.402;0.016;2023-01-29T00:57:26;16.80;;;10.83;;
24901;SDS011;31328;51.402;0.016;2023-01-29T00:59:54;17.53;;;10.63;;
24901;SDS011;31328;51.402;0.016;2023-01-29T01:02:20;21.97;;;12.27;;
24901;SDS011;31328;51.402;0.016;2023-01-29T01:05:06;20.17;;;12.10;;
24901;SDS011;31328;51.402;0.016;2023-01-29T01:07:39;19.70;;;11.27;;
24901;SDS011;31328;51.402;0.016;2023-01-29T01:10:06;19.87;;;11.13;;
24901;SDS011;31328;51.402;0.016;2023-01-29T01:15:30;20.03;;;10.60;;
24901;SDS011;31328;51.402;0.016;2023-01-29T01:18:03;21.50;;;11.98;;
24901;SDS011;31328;51.402;0.016;2023-01-29T01:20:31;21.97;;;11.77;;
24901;SDS011;31328;51.402;0.016;2023-01-29T01:22:58;20.57;;;11.90;;
24901;SDS011;31328;51.402;0.016;2023-01-29T01:25:25;21.13;;;11.63;;
24901;SDS011;31328;51.402;0.016;2023-01-29T01:27:52;20.70;;;12.00;;
24901;SDS011;31328;51.402;0.016;2023-01-29T01:30:19;20.43;;;11.43;;
24901;SDS011;31328;51.402;0.016;2023-01-29T01:32:46;24.63;;;12.60;;
24901;SDS011;31328;51.402;0.016;2023-01-29T01:35:12;23.17;;;13.07;;
24901;SDS011;31328;51.402;0.016;2023-01-29T01:37:40;21.30;;;11.83;;
24901;SDS011;31328;51.402;0.016;2023-01-29T01:40:08;20.50;;;12.07;;
24901;SDS011;31328;51.402;0.016;2023-01-29T01:42:51;22.77;;;13.87;;
24901;SDS011;31328;51.402;0.016;2023-01-29T01:53:17;21.37;;;12.90;;
24901;SDS011;31328;51.402;0.016;2023-01-29T01:55:48;20.70;;;11.70;;
24901;SDS011;31328;51.402;0.016;2023-01-29T01:58:22;22.60;;;13.13;;
24901;SDS011;31328;51.402;0.016;2023-01-29T02:00:52;22.30;;;12.38;;
24901;SDS011;31328;51.402;0.016;2023-01-29T02:03:19;22.17;;;12.77;;
24901;SDS011;31328;51.402;0.016;2023-01-29T02:06:06;20.23;;;11.83;;
24901;SDS011;31328;51.402;0.016;2023-01-29T02:08:56;24.07;;;12.60;;
24901;SDS011;31328;51.402;0.016;2023-01-29T02:11:45;28.53;;;13.73;;
24901;SDS011;31328;51.402;0.016;2023-01-29T02:14:11;22.93;;;13.53;;
24901;SDS011;31328;51.402;0.016;2023-01-29T02:16:38;25.60;;;13.20;;
24901;SDS011;31328;51.402;0.016;2023-01-29T02:19:06;23.37;;;12.07;;
24901;SDS011;31328;51.402;0.016;2023-01-29T02:27:07;25.77;;;13.23;;
24901;SDS011;31328;51.402;0.016;2023-01-29T02:29:44;27.83;;;14.13;;
24901;SDS011;31328;51.402;0.016;2023-01-29T02:35:29;23.80;;;12.77;;
24901;SDS011;31328;51.402;0.016;2023-01-29T02:40:56;22.55;;;12.73;;
24901;SDS011;31328;51.402;0.016;2023-01-29T02:43:46;21.70;;;12.27;;
24901;SDS011;31328;51.402;0.016;2023-01-29T02:51:36;22.33;;;13.07;;
24901;SDS011;31328;51.402;0.016;2023-01-29T02:54:20;22.90;;;12.43;;
24901;SDS011;31328;51.402;0.016;2023-01-29T02:57:14;22.70;;;12.87;;
24901;SDS011;31328;51.402;0.016;2023-01-29T02:59:53;22.43;;;12.50;;
24901;SDS011;31328;51.402;0.016;2023-01-29T03:02:25;20.17;;;12.20;;
24901;SDS011;31328;51.402;0.016;2023-01-29T03:05:03;25.97;;;13.10;;
24901;SDS011;31328;51.402;0.016;2023-01-29T03:07:39;23.57;;;12.20;;
24901;SDS011;31328;51.402;0.016;2023-01-29T03:10:39;29.67;;;13.90;;
24901;SDS011;31328;51.402;0.016;2023-01-29T03:16:06;24.50;;;12.83;;
24901;SDS011;31328;51.402;0.016;2023-01-29T03:19:08;27.80;;;14.17;;
24901;SDS011;31328;51.402;0.016;2023-01-29T03:21:39;22.60;;;12.57;;
24901;SDS011;31328;51.402;0.016;2023-01-29T03:24:18;24.43;;;13.23;;
24901;SDS011;31328;51.402;0.016;2023-01-29T03:27:17;22.70;;;13.03;;
24901;SDS011;31328;51.402;0.016;2023-01-29T03:30:06;25.27;;;13.40;;
24901;SDS011;31328;51.402;0.016;2023-01-29T03:33:11;23.58;;;13.43;;
24901;SDS011;31328;51.402;0.016;2023-01-29T03:35:42;23.03;;;13.17;;
24901;SDS011;31328;51.402;0.016;2023-01-29T03:38:14;24.52;;;13.93;;
24901;SDS011;31328;51.402;0.016;2023-01-29T03:43:33;26.13;;;13.30;;
24901;SDS011;31328;51.402;0.016;2023-01-29T03:46:03;27.27;;;13.37;;
24901;SDS011;31328;51.402;0.016;2023-01-29T03:54:04;23.90;;;13.67;;
24901;SDS011;31328;51.402;0.016;2023-01-29T04:02:14;25.77;;;13.93;;
24901;SDS011;31328;51.402;0.016;2023-01-29T04:05:03;25.47;;;13.37;;
24901;SDS011;31328;51.402;0.016;2023-01-29T04:07:41;24.07;;;12.20;;
24901;SDS011;31328;51.402;0.016;2023-01-29T04:10:15;30.77;;;14.40;;
24901;SDS011;31328;51.402;0.016;2023-01-29T04:12:49;23.80;;;14.17;;
24901;SDS011;31328;51.402;0.016;2023-01-29T04:15:29;24.42;;;13.02;;
24901;SDS011;31328;51.402;0.016;2023-01-29T04:18:01;27.60;;;14.03;;
24901;SDS011;31328;51.402;0.016;2023-01-29T04:20:53;25.87;;;13.00;;
24901;SDS011;31328;51.402;0.016;2023-01-29T04:23:24;23.53;;;13.63;;
24901;SDS011;31328;51.402;0.016;2023-01-29T04:25:59;23.53;;;13.13;;
24901;SDS011;31328;51.402;0.016;2023-01-29T04:31:13;23.83;;;14.07;;
24901;SDS011;31328;51.402;0.016;2023-01-29T04:33:43;23.27;;;13.20;;
24901;SDS011;31328;51.402;0.016;2023-01-29T04:36:32;23.93;;;13.93;;
24901;SDS011;31328;51.402;0.016;2023-01-29T04:39:17;25.03;;;14.40;;
24901;SDS011;31328;51.402;0.016;2023-01-29T04:41:49;24.27;;;14.53;;
24901;SDS011;31328;51.402;0.016;2023-01-29T04:52:23;22.77;;;13.10;;
24901;SDS011;31328;51.402;0.016;2023-01-29T04:57:46;25.10;;;13.73;;
24901;SDS011;31328;51.402;0.016;2023-01-29T05:00:20;21.33;;;13.30;;
24901;SDS011;31328;51.402;0.016;2023-01-29T05:02:54;24.33;;;12.70;;
24901;SDS011;31328;51.402;0.016;2023-01-29T05:05:22;22.90;;;12.60;;
24901;SDS011;31328;51.402;0.016;2023-01-29T05:07:48;23.10;;;12.23;;
24901;SDS011;31328;51.402;0.016;2023-01-29T05:10:16;24.87;;;13.53;;
24901;SDS011;31328;51.402;0.016;2023-01-29T05:12:46;24.43;;;12.73;;
24901;SDS011;31328;51.402;0.016;2023-01-29T05:15:18;25.30;;;12.77;;
24901;SDS011;31328;51.402;0.016;2023-01-29T05:17:48;22.77;;;13.00;;
24901;SDS011;31328;51.402;0.016;2023-01-29T05:20:15;24.30;;;13.20;;
24901;SDS011;31328;51.402;0.016;2023-01-29T05:22:41;22.87;;;13.17;;
24901;SDS011;31328;51.402;0.016;2023-01-29T05:25:18;27.77;;;13.60;;
24901;SDS011;31328;51.402;0.016;2023-01-29T05:27:50;19.83;;;12.90;;
24901;SDS011;31328;51.402;0.016;2023-01-29T05:30:31;25.10;;;11.77;;
24901;SDS011;31328;51.402;0.016;2023-01-29T05:32:58;22.53;;;12.60;;
24901;SDS011;31328;51.402;0.016;2023-01-29T05:35:25;22.80;;;12.83;;
24901;SDS011;31328;51.402;0.016;2023-01-29T05:37:54;24.17;;;13.13;;
24901;SDS011;31328;51.402;0.016;2023-01-29T05:40:22;22.53;;;12.80;;
24901;SDS011;31328;51.402;0.016;2023-01-29T05:42:49;23.50;;;12.40;;
24901;SDS011;31328;51.402;0.016;2023-01-29T05:45:16;22.43;;;12.80;;
24901;SDS011;31328;51.402;0.016;2023-01-29T05:47:44;23.57;;;11.00;;
24901;SDS011;31328;51.402;0.016;2023-01-29T05:50:11;19.83;;;11.43;;
24901;SDS011;31328;51.402;0.016;2023-01-29T05:52:38;22.13;;;12.03;;
24901;SDS011;31328;51.402;0.016;2023-01-29T05:55:06;21.53;;;10.67;;
24901;SDS011;31328;51.402;0.016;2023-01-29T05:57:34;20.60;;;11.33;;
24901;SDS011;31328;51.402;0.016;2023-01-29T06:00:00;19.53;;;11.80;;
24901;SDS011;31328;51.402;0.016;2023-01-29T06:02:29;24.77;;;11.13;;
24901;SDS011;31328;51.402;0.016;2023-01-29T06:04:56;22.97;;;11.57;;
24901;SDS011;31328;51.402;0.016;2023-01-29T06:07:22;22.33;;;12.77;;
24901;SDS011;31328;51.402;0.016;2023-01-29T06:09:49;17.67;;;10.30;;
24901;SDS011;31328;51.402;0.016;2023-01-29T06:12:15;17.50;;;10.47;;
24901;SDS011;31328;51.402;0.016;2023-01-29T06:14:41;18.87;;;9.87;;
24901;SDS011;31328;51.402;0.016;2023-01-29T06:17:07;17.17;;;9.70;;
24901;SDS011;31328;51.402;0.016;2023-01-29T06:19:34;18.37;;;9.43;;
24901;SDS011;31328;51.402;0.016;2023-01-29T06:22:00;17.00;;;9.60;;
24901;SDS011;31328;51.402;0.016;2023-01-29T06:24:26;15.80;;;9.63;;
24901;SDS011;31328;51.402;0.016;2023-01-29T06:26:53;17.40;;;9.60;;
24901;SDS011;31328;51.402;0.016;2023-01-29T06:29:19;17.60;;;10.17;;
24901;SDS011;31328;51.402;0.016;2023-01-29T06:31:45;16.80;;;9.47;;
24901;SDS011;31328;51.402;0.016;2023-01-29T06:34:12;17.80;;;8.63;;
24901;SDS011;31328;51.402;0.016;2023-01-29T06:36:38;16.60;;;8.77;;
24901;SDS011;31328;51.402;0.016;2023-01-29T06:39:06;17.43;;;8.63;;
24901;SDS011;31328;51.402;0.016;2023-01-29T06:41:33;17.43;;;8.50;;
24901;SDS011;31328;51.402;0.016;2023-01-29T06:43:59;16.67;;;9.73;;
24901;SDS011;31328;51.402;0.016;2023-01-29T06:46:26;12.83;;;7.77;;
24901;SDS011;31328;51.402;0.016;2023-01-29T06:48:52;13.60;;;7.87;;
24901;SDS011;31328;51.402;0.016;2023-01-29T06:51:18;14.83;;;7.90;;
24901;SDS011;31328;51.402;0.016;2023-01-29T06:53:46;14.97;;;8.67;;
24901;SDS011;31328;51.402;0.016;2023-01-29T06:56:12;14.63;;;7.27;;
24901;SDS011;31328;51.402;0.016;2023-01-29T06:58:39;14.47;;;7.27;;
24901;SDS011;31328;51.402;0.016;2023-01-29T07:01:07;13.10;;;7.50;;
24901;SDS011;31328;51.402;0.016;2023-01-29T07:03:34;13.67;;;8.33;;
24901;SDS011;31328;51.402;0.016;2023-01-29T07:06:01;12.07;;;6.77;;
24901;SDS011;31328;51.402;0.016;2023-01-29T07:08:28;12.50;;;7.07;;
24901;SDS011;31328;51.402;0.016;2023-01-29T07:11:01;11.33;;;6.47;;
24901;SDS011;31328;51.402;0.016;2023-01-29T07:13:28;10.07;;;6.00;;
24901;SDS011;31328;51.402;0.016;2023-01-29T07:16:01;10.53;;;6.97;;
24901;SDS011;31328;51.402;0.016;2023-01-29T07:18:28;10.10;;;5.97;;
24901;SDS011;31328;51.402;0.016;2023-01-29T07:20:55;10.50;;;6.33;;
24901;SDS011;31328;51.402;0.016;2023-01-29T07:23:22;9.37;;;5.47;;
24901;SDS011;31328;51.402;0.016;2023-01-29T07:25:50;9.53;;;5.40;;
24901;SDS011;31328;51.402;0.016;2023-01-29T07:28:16;8.57;;;5.67;;
24901;SDS011;31328;51.402;0.016;2023-01-29T07:30:43;9.87;;;5.67;;
24901;SDS011;31328;51.402;0.016;2023-01-29T07:33:10;9.07;;;5.60;;
24901;SDS011;31328;51.402;0.016;2023-01-29T07:35:37;9.17;;;5.40;;
24901;SDS011;31328;51.402;0.016;2023-01-29T07:38:05;9.97;;;5.87;;
24901;SDS011;31328;51.402;0.016;2023-01-29T07:40:33;8.77;;;4.87;;
24901;SDS011;31328;51.402;0.016;2023-01-29T07:43:00;9.87;;;5.30;;
24901;SDS011;31328;51.402;0.016;2023-01-29T07:45:28;9.23;;;5.40;;
24901;SDS011;31328;51.402;0.016;2023-01-29T07:47:55;8.80;;;5.57;;
24901;SDS011;31328;51.402;0.016;2023-01-29T07:50:22;7.20;;;4.97;;
24901;SDS011;31328;51.402;0.016;2023-01-29T07:52:50;9.23;;;5.20;;
24901;SDS011;31328;51.402;0.016;2023-01-29T07:55:16;9.03;;;6.07;;
24901;SDS011;31328;51.402;0.016;2023-01-29T07:57:43;8.50;;;4.70;;
24901;SDS011;31328;51.402;0.016;2023-01-29T08:00:09;8.83;;;4.50;;
24901;SDS011;31328;51.402;0.016;2023-01-29T08:02:39;8.17;;;5.03;;
24901;SDS011;31328;51.402;0.016;2023-01-29T08:05:06;9.27;;;5.40;;
24901;SDS011;31328;51.402;0.016;2023-01-29T08:07:33;8.73;;;5.10;;
24901;SDS011;31328;51.402;0.016;2023-01-29T08:09:59;12.37;;;4.87;;
24901;SDS011;31328;51.402;0.016;2023-01-29T08:12:26;8.30;;;5.03;;
24901;SDS011;31328;51.402;0.016;2023-01-29T08:14:52;11.27;;;4.70;;
24901;SDS011;31328;51.402;0.016;2023-01-29T08:17:18;9.30;;;4.83;;
24901;SDS011;31328;51.402;0.016;2023-01-29T08:19:45;11.13;;;4.60;;
24901;SDS011;31328;51.402;0.016;2023-01-29T08:22:11;8.57;;;5.17;;
24901;SDS011;31328;51.402;0.016;2023-01-29T08:24:37;8.77;;;4.97;;
24901;SDS011;31328;51.402;0.016;2023-01-29T08:27:04;8.07;;;4.40;;
24901;SDS011;31328;51.402;0.016;2023-01-29T08:29:30;7.37;;;4.27;;
24901;SDS011;31328;51.402;0.016;2023-01-29T08:31:56;8.53;;;4.87;;
24901;SDS011;31328;51.402;0.016;2023-01-29T08:34:23;9.07;;;4.60;;
24901;SDS011;31328;51.402;0.016;2023-01-29T08:36:49;7.83;;;4.93;;
24901;SDS011;31328;51.402;0.016;2023-01-29T08:39:15;6.93;;;4.57;;
24901;SDS011;31328;51.402;0.016;2023-01-29T08:41:42;8.97;;;5.33;;
24901;SDS011;31328;51.402;0.016;2023-01-29T08:44:08;7.90;;;4.57;;
24901;SDS011;31328;51.402;0.016;2023-01-29T08:46:34;11.33;;;5.63;;
24901;SDS011;31328;51.402;0.016;2023-01-29T08:49:02;8.90;;;5.10;;
24901;SDS011;31328;51.402;0.016;2023-01-29T08:51:28;10.23;;;5.00;;
24901;SDS011;31328;51.402;0.016;2023-01-29T08:53:55;9.50;;;4.83;;
24901;SDS011;31328;51.402;0.016;2023-01-29T08:56:21;9.30;;;4.93;;
24901;SDS011;31328;51.402;0.016;2023-01-29T08:58:47;9.03;;;5.17;;
24901;SDS011;31328;51.402;0.016;2023-01-29T09:01:13;8.80;;;4.77;;
24901;SDS011;31328;51.402;0.016;2023-01-29T09:03:40;9.30;;;5.93;;
24901;SDS011;31328;51.402;0.016;2023-01-29T09:06:09;7.93;;;5.00;;
24901;SDS011;31328;51.402;0.016;2023-01-29T09:08:37;10.93;;;5.27;;
24901;SDS011;31328;51.402;0.016;2023-01-29T09:11:04;10.00;;;5.00;;
24901;SDS011;31328;51.402;0.016;2023-01-29T09:13:31;9.17;;;5.27;;
24901;SDS011;31328;51.402;0.016;2023-01-29T09:15:59;12.60;;;5.77;;
24901;SDS011;31328;51.402;0.016;2023-01-29T09:18:26;12.03;;;6.30;;
24901;SDS011;31328;51.402;0.016;2023-01-29T09:20:53;11.17;;;5.90;;
24901;SDS011;31328;51.402;0.016;2023-01-29T09:23:20;8.93;;;5.30;;
24901;SDS011;31328;51.402;0.016;2023-01-29T09:25:46;10.73;;;6.13;;
24901;SDS011;31328;51.402;0.016;2023-01-29T09:28:13;12.27;;;6.70;;
24901;SDS011;31328;51.402;0.016;2023-01-29T09:30:39;12.37;;;6.27;;
24901;SDS011;31328;51.402;0.016;2023-01-29T09:33:05;14.67;;;6.57;;
24901;SDS011;31328;51.402;0.016;2023-01-29T09:35:32;9.30;;;6.07;;
24901;SDS011;31328;51.402;0.016;2023-01-29T09:37:59;11.13;;;6.63;;
24901;SDS011;31328;51.402;0.016;2023-01-29T09:43:24;13.53;;;7.07;;
24901;SDS011;31328;51.402;0.016;2023-01-29T09:46:51;12.27;;;5.90;;
24901;SDS011;31328;51.402;0.016;2023-01-29T09:54:47;9.80;;;5.30;;
24901;SDS011;31328;51.402;0.016;2023-01-29T09:57:35;9.73;;;5.80;;
24901;SDS011;31328;51.402;0.016;2023-01-29T10:00:19;13.00;;;5.80;;
24901;SDS011;31328;51.402;0.016;2023-01-29T10:02:59;11.00;;;5.67;;
24901;SDS011;31328;51.402;0.016;2023-01-29T10:06:08;8.53;;;5.17;;
24901;SDS011;31328;51.402;0.016;2023-01-29T10:09:21;9.00;;;4.80;;
24901;SDS011;31328;51.402;0.016;2023-01-29T10:25:33;10.87;;;5.67;;
24901;SDS011;31328;51.402;0.016;2023-01-29T10:28:14;8.10;;;4.97;;
24901;SDS011;31328;51.402;0.016;2023-01-29T10:30:50;8.97;;;5.23;;
24901;SDS011;31328;51.402;0.016;2023-01-29T10:33:22;12.30;;;5.97;;
24901;SDS011;31328;51.402;0.016;2023-01-29T10:35:58;10.37;;;5.10;;
24901;SDS011;31328;51.402;0.016;2023-01-29T10:38:50;9.87;;;5.07;;
24901;SDS011;31328;51.402;0.016;2023-01-29T10:49:49;10.00;;;5.70;;
24901;SDS011;31328;51.402;0.016;2023-01-29T10:55:52;10.37;;;5.60;;
24901;SDS011;31328;51.402;0.016;2023-01-29T10:58:30;12.57;;;6.00;;
24901;SDS011;31328;51.402;0.016;2023-01-29T11:01:12;9.07;;;5.20;;
24901;SDS011;31328;51.402;0.016;2023-01-29T11:03:39;12.13;;;6.13;;
24901;SDS011;31328;51.402;0.016;2023-01-29T11:06:14;10.67;;;6.40;;
24901;SDS011;31328;51.402;0.016;2023-01-29T11:08:45;10.33;;;5.93;;
24901;SDS011;31328;51.402;0.016;2023-01-29T11:17:14;10.87;;;5.57;;
24901;SDS011;31328;51.402;0.016;2023-01-29T11:19:45;11.57;;;6.10;;
24901;SDS011;31328;51.402;0.016;2023-01-29T11:22:17;11.43;;;5.93;;
24901;SDS011;31328;51.402;0.016;2023-01-29T11:24:45;12.03;;;6.90;;
24901;SDS011;31328;51.402;0.016;2023-01-29T11:27:32;8.83;;;5.10;;
24901;SDS011;31328;51.402;0.016;2023-01-29T11:30:00;11.60;;;5.97;;
24901;SDS011;31328;51.402;0.016;2023-01-29T11:32:31;9.47;;;5.33;;
24901;SDS011;31328;51.402;0.016;2023-01-29T11:37:37;10.57;;;5.73;;
24901;SDS011;31328;51.402;0.016;2023-01-29T11:43:12;10.23;;;5.03;;
24901;SDS011;31328;51.402;0.016;2023-01-29T11:45:44;10.37;;;4.90;;
24901;SDS011;31328;51.402;0.016;2023-01-29T11:48:19;12.13;;;4.90;;
24901;SDS011;31328;51.402;0.016;2023-01-29T11:50:51;11.97;;;4.90;;
24901;SDS011;31328;51.402;0.016;2023-01-29T11:54:04;11.10;;;5.35;;
24901;SDS011;31328;51.402;0.016;2023-01-29T11:58:57;8.30;;;5.03;;
24901;SDS011;31328;51.402;0.016;2023-01-29T12:01:42;8.53;;;5.83;;
24901;SDS011;31328;51.402;0.016;2023-01-29T12:04:17;9.55;;;6.10;;
24901;SDS011;31328;51.402;0.016;2023-01-29T12:06:46;9.90;;;5.63;;
24901;SDS011;31328;51.402;0.016;2023-01-29T12:09:18;8.90;;;5.00;;
24901;SDS011;31328;51.402;0.016;2023-01-29T12:11:47;7.63;;;5.00;;
24901;SDS011;31328;51.402;0.016;2023-01-29T12:14:31;9.53;;;5.13;;
24901;SDS011;31328;51.402;0.016;2023-01-29T12:17:13;10.55;;;4.57;;
24901;SDS011;31328;51.402;0.016;2023-01-29T12:19:45;8.93;;;4.70;;
24901;SDS011;31328;51.402;0.016;2023-01-29T12:22:20;7.37;;;4.77;;
24901;SDS011;31328;51.402;0.016;2023-01-29T12:25:02;8.07;;;4.77;;
24901;SDS011;31328;51.402;0.016;2023-01-29T12:30:40;9.17;;;5.37;;
24901;SDS011;31328;51.402;0.016;2023-01-29T12:33:22;6.17;;;4.23;;
24901;SDS011;31328;51.402;0.016;2023-01-29T12:36:12;7.57;;;4.57;;
24901;SDS011;31328;51.402;0.016;2023-01-29T12:38:45;6.45;;;4.03;;
24901;SDS011;31328;51.402;0.016;2023-01-29T12:44:11;8.17;;;5.23;;
24901;SDS011;31328;51.402;0.016;2023-01-29T12:46:50;8.85;;;4.57;;
24901;SDS011;31328;51.402;0.016;2023-01-29T12:49:22;8.65;;;4.68;;
24901;SDS011;31328;51.402;0.016;2023-01-29T12:51:59;7.17;;;4.27;;
24901;SDS011;31328;51.402;0.016;2023-01-29T12:54:52;6.87;;;4.30;;
24901;SDS011;31328;51.402;0.016;2023-01-29T12:57:25;8.37;;;4.57;;
24901;SDS011;31328;51.402;0.016;2023-01-29T13:00:09;6.70;;;4.03;;
24901;SDS011;31328;51.402;0.016;2023-01-29T13:02:52;6.63;;;3.83;;
24901;SDS011;31328;51.402;0.016;2023-01-29T13:08:26;6.03;;;3.77;;
24901;SDS011;31328;51.402;0.016;2023-01-29T13:11:03;5.27;;;3.40;;
24901;SDS011;31328;51.402;0.016;2023-01-29T13:13:37;4.82;;;3.15;;
24901;SDS011;31328;51.402;0.016;2023-01-29T13:16:18;6.13;;;3.20;;
24901;SDS011;31328;51.402;0.016;2023-01-29T13:18:49;6.83;;;3.47;;
24901;SDS011;31328;51.402;0.016;2023-01-29T13:21:22;5.47;;;2.80;;
24901;SDS011;31328;51.402;0.016;2023-01-29T13:24:01;5.90;;;3.63;;
24901;SDS011;31328;51.402;0.016;2023-01-29T13:26:30;5.87;;;3.30;;
24901;SDS011;31328;51.402;0.016;2023-01-29T13:28:57;5.57;;;3.33;;
24901;SDS011;31328;51.402;0.016;2023-01-29T13:31:33;6.70;;;4.07;;
24901;SDS011;31328;51.402;0.016;2023-01-29T13:34:12;6.53;;;3.20;;
24901;SDS011;31328;51.402;0.016;2023-01-29T13:36:41;4.80;;;3.00;;
24901;SDS011;31328;51.402;0.016;2023-01-29T13:39:15;4.37;;;2.83;;
24901;SDS011;31328;51.402;0.016;2023-01-29T13:41:50;5.07;;;3.33;;
24901;SDS011;31328;51.402;0.016;2023-01-29T13:44:33;6.43;;;2.87;;
24901;SDS011;31328;51.402;0.016;2023-01-29T13:49:31;3.77;;;2.20;;
24901;SDS011;31328;51.402;0.016;2023-01-29T13:54:48;3.77;;;2.50;;
24901;SDS011;31328;51.402;0.016;2023-01-29T14:03:32;2.90;;;2.00;;
24901;SDS011;31328;51.402;0.016;2023-01-29T14:06:00;3.40;;;2.30;;
24901;SDS011;31328;51.402;0.016;2023-01-29T14:13:42;5.57;;;2.57;;
24901;SDS011;31328;51.402;0.016;2023-01-29T14:18:45;3.50;;;1.73;;
24901;SDS011;31328;51.402;0.016;2023-01-29T14:21:21;3.07;;;1.60;;
24901;SDS011;31328;51.402;0.016;2023-01-29T14:23:50;2.90;;;1.80;;
24901;SDS011;31328;51.402;0.016;2023-01-29T14:26:28;2.20;;;1.73;;
24901;SDS011;31328;51.402;0.016;2023-01-29T14:39:42;2.07;;;1.40;;
24901;SDS011;31328;51.402;0.016;2023-01-29T14:42:28;1.77;;;1.23;;
24901;SDS011;31328;51.402;0.016;2023-01-29T14:45:34;1.97;;;1.40;;
24901;SDS011;31328;51.402;0.016;2023-01-29T14:50:38;3.33;;;1.60;;
24901;SDS011;31328;51.402;0.016;2023-01-29T14:56:13;2.67;;;1.37;;
24901;SDS011;31328;51.402;0.016;2023-01-29T14:58:45;2.50;;;1.80;;
24901;SDS011;31328;51.402;0.016;2023-01-29T15:03:50;2.67;;;1.87;;
24901;SDS011;31328;51.402;0.016;2023-01-29T15:06:37;3.17;;;2.03;;
24901;SDS011;31328;51.402;0.016;2023-01-29T15:14:32;2.70;;;1.97;;
24901;SDS011;31328;51.402;0.016;2023-01-29T15:19:43;3.60;;;2.50;;
24901;SDS011;31328;51.402;0.016;2023-01-29T15:22:16;3.50;;;3.20;;
24901;SDS011;31328;51.402;0.016;2023-01-29T15:24:45;5.13;;;3.47;;
24901;SDS011;31328;51.402;0.016;2023-01-29T15:27:32;4.70;;;3.63;;
24901;SDS011;31328;51.402;0.016;2023-01-29T15:29:59;5.27;;;3.77;;
24901;SDS011;31328;51.402;0.016;2023-01-29T15:32:32;5.07;;;3.60;;
24901;SDS011;31328;51.402;0.016;2023-01-29T15:35:05;4.80;;;3.00;;
24901;SDS011;31328;51.402;0.016;2023-01-29T15:37:36;3.27;;;2.30;;
24901;SDS011;31328;51.402;0.016;2023-01-29T15:40:03;3.57;;;2.40;;
24901;SDS011;31328;51.402;0.016;2023-01-29T15:42:46;2.47;;;1.80;;
24901;SDS011;31328;51.402;0.016;2023-01-29T15:45:23;2.00;;;1.77;;
24901;SDS011;31328;51.402;0.016;2023-01-29T15:47:54;2.87;;;2.10;;
24901;SDS011;31328;51.402;0.016;2023-01-29T15:50:25;3.20;;;2.10;;
24901;SDS011;31328;51.402;0.016;2023-01-29T15:52:51;2.67;;;1.77;;
24901;SDS011;31328;51.402;0.016;2023-01-29T15:55:20;3.37;;;1.70;;
24901;SDS011;31328;51.402;0.016;2023-01-29T15:57:48;2.90;;;1.83;;
24901;SDS011;31328;51.402;0.016;2023-01-29T16:00:24;5.53;;;2.80;;
24901;SDS011;31328;51.402;0.016;2023-01-29T16:02:53;4.17;;;2.80;;
24901;SDS011;31328;51.402;0.016;2023-01-29T16:05:21;2.70;;;2.10;;
24901;SDS011;31328;51.402;0.016;2023-01-29T16:07:51;3.50;;;2.00;;
24901;SDS011;31328;51.402;0.016;2023-01-29T16:10:29;2.10;;;1.90;;
24901;SDS011;31328;51.402;0.016;2023-01-29T16:12:57;2.20;;;1.90;;
24901;SDS011;31328;51.402;0.016;2023-01-29T16:15:28;2.10;;;1.70;;
24901;SDS011;31328;51.402;0.016;2023-01-29T16:18:00;2.97;;;1.83;;
24901;SDS011;31328;51.402;0.016;2023-01-29T16:20:30;2.57;;;1.63;;
24901;SDS011;31328;51.402;0.016;2023-01-29T16:22:58;2.13;;;1.60;;
24901;SDS011;31328;51.402;0.016;2023-01-29T16:25:25;3.53;;;2.23;;
24901;SDS011;31328;51.402;0.016;2023-01-29T16:27:54;2.90;;;2.00;;
24901;SDS011;31328;51.402;0.016;2023-01-29T16:30:20;2.73;;;2.30;;
24901;SDS011;31328;51.402;0.016;2023-01-29T16:32:51;3.17;;;2.57;;
24901;SDS011;31328;51.402;0.016;2023-01-29T16:35:17;3.87;;;2.10;;
24901;SDS011;31328;51.402;0.016;2023-01-29T16:37:47;2.97;;;2.07;;
24901;SDS011;31328;51.402;0.016;2023-01-29T16:40:27;3.43;;;2.10;;
24901;SDS011;31328;51.402;0.016;2023-01-29T16:43:37;3.20;;;2.40;;
24901;SDS011;31328;51.402;0.016;2023-01-29T16:48:40;2.33;;;2.13;;
24901;SDS011;31328;51.402;0.016;2023-01-29T16:56:22;2.80;;;1.80;;
24901;SDS011;31328;51.402;0.016;2023-01-29T16:58:51;1.90;;;1.43;;
24901;SDS011;31328;51.402;0.016;2023-01-29T17:01:20;3.13;;;1.90;;
24901;SDS011;31328;51.402;0.016;2023-01-29T17:03:55;1.93;;;1.50;;
24901;SDS011;31328;51.402;0.016;2023-01-29T17:06:44;3.63;;;2.10;;
24901;SDS011;31328;51.402;0.016;2023-01-29T17:09:22;3.17;;;2.13;;
24901;SDS011;31328;51.402;0.016;2023-01-29T17:11:54;4.60;;;2.50;;
24901;SDS011;31328;51.402;0.016;2023-01-29T17:14:24;3.20;;;2.27;;
24901;SDS011;31328;51.402;0.016;2023-01-29T17:19:25;2.80;;;1.50;;
24901;SDS011;31328;51.402;0.016;2023-01-29T17:21:52;2.63;;;2.43;;
24901;SDS011;31328;51.402;0.016;2023-01-29T17:24:18;3.40;;;1.90;;
24901;SDS011;31328;51.402;0.016;2023-01-29T17:26:44;2.77;;;1.80;;
24901;SDS011;31328;51.402;0.016;2023-01-29T17:29:16;3.97;;;1.97;;
24901;SDS011;31328;51.402;0.016;2023-01-29T17:31:44;3.33;;;2.13;;
24901;SDS011;31328;51.402;0.016;2023-01-29T17:34:12;2.70;;;2.37;;
24901;SDS011;31328;51.402;0.016;2023-01-29T17:36:40;2.73;;;2.10;;
24901;SDS011;31328;51.402;0.016;2023-01-29T17:41:44;3.10;;;1.92;;
24901;SDS011;31328;51.402;0.016;2023-01-29T17:44:14;2.67;;;1.80;;
24901;SDS011;31328;51.402;0.016;2023-01-29T17:46:40;3.13;;;1.90;;
24901;SDS011;31328;51.402;0.016;2023-01-29T17:49:18;2.27;;;1.73;;
24901;SDS011;31328;51.402;0.016;2023-01-29T17:51:45;2.17;;;1.67;;
24901;SDS011;31328;51.402;0.016;2023-01-29T17:54:13;2.00;;;1.47;;
24901;SDS011;31328;51.402;0.016;2023-01-29T17:56:40;1.60;;;1.43;;
24901;SDS011;31328;51.402;0.016;2023-01-29T17:59:14;2.40;;;1.17;;